createdAt,value
2023-01-25T00:01:02.434Z,11.35
2023-01-25T00:03:43.374Z,3.22
2023-01-25T00:06:37.346Z,11.38
2023-01-25T00:11:59.490Z,11.40
2023-01-25T00:14:40.351Z,9.50
2023-01-25T00:17:21.370Z,11.38
2023-01-25T00:19:55.505Z,17.80
2023-01-25T00:22:42.477Z,11.38
2023-01-25T00:25:16.407Z,7.30
2023-01-25T00:28:03.356Z,7.03
2023-01-25T00:30:37.437Z,6.28
2023-01-25T00:33:24.375Z,16.60
2023-01-25T00:36:05.382Z,4.78
2023-01-25T00:39:01.362Z,11.90
2023-01-25T00:41:48.344Z,13.60
2023-01-25T00:44:22.439Z,14.85
2023-01-25T00:47:11.396Z,13.48
2023-01-25T00:49:46.467Z,14.50
2023-01-25T00:52:35.342Z,14.90
2023-01-25T00:55:10.121Z,9.63
2023-01-25T00:57:57.357Z,13.48
2023-01-25T01:00:38.378Z,7.70
2023-01-25T01:03:32.359Z,6.22
2023-01-25T01:06:20.376Z,4.60
2023-01-25T01:08:54.414Z,11.00
2023-01-25T01:11:41.349Z,14.77
2023-01-25T01:14:22.371Z,7.40
2023-01-25T01:17:16.324Z,9.55
2023-01-25T01:22:37.454Z,8.27
2023-01-25T01:25:19.351Z,8.65
2023-01-25T01:27:59.338Z,6.35
2023-01-25T01:30:40.386Z,16.65
2023-01-25T01:33:35.410Z,5.85
2023-01-25T01:36:23.396Z,13.68
2023-01-25T01:39:04.355Z,8.77
2023-01-25T01:41:58.348Z,13.70
2023-01-25T01:44:56.359Z,8.55
2023-01-25T01:47:33.446Z,11.18
2023-01-25T01:50:35.365Z,7.30
2023-01-25T01:53:29.376Z,8.27
2023-01-25T01:56:18.394Z,7.55
2023-01-25T01:58:52.476Z,11.18
2023-01-25T02:01:40.390Z,14.75
2023-01-25T02:04:21.348Z,7.43
2023-01-25T02:07:35.030Z,5.65
2023-01-25T02:10:23.373Z,12.20
2023-01-25T02:13:06.373Z,12.52
2023-01-25T02:15:54.393Z,12.05
2023-01-25T02:18:35.351Z,15.82
2023-01-25T02:21:30.365Z,12.02
2023-01-25T02:24:24.382Z,14.02
2023-01-25T02:29:52.363Z,9.90
2023-01-25T02:32:33.938Z,8.27
2023-01-25T02:35:25.365Z,7.95
2023-01-25T02:37:59.354Z,12.32
2023-01-25T02:40:49.414Z,10.20
2023-01-25T02:43:24.111Z,11.60
2023-01-25T02:46:17.428Z,14.43
2023-01-25T02:48:51.348Z,14.65
2023-01-25T02:51:41.355Z,12.35
2023-01-25T02:54:22.377Z,7.00
2023-01-25T02:57:03.489Z,9.25
2023-01-25T02:59:43.390Z,13.40
2023-01-25T03:02:24.570Z,16.98
2023-01-25T03:05:05.742Z,5.20
2023-01-25T03:07:46.477Z,14.23
2023-01-25T03:10:26.346Z,15.90
2023-01-25T03:13:07.466Z,17.90
2023-01-25T03:15:47.398Z,19.55
2023-01-25T03:18:28.436Z,11.90
2023-01-25T03:21:16.337Z,7.15
2023-01-25T03:24:09.418Z,18.85
2023-01-25T03:27:02.322Z,9.45
2023-01-25T03:29:50.367Z,7.70
2023-01-25T03:32:30.382Z,11.10
2023-01-25T03:35:19.374Z,13.18
2023-01-25T03:37:53.363Z,19.65
2023-01-25T03:40:41.335Z,13.35
2023-01-25T03:43:15.749Z,15.98
2023-01-25T03:46:07.343Z,26.38
2023-01-25T03:48:41.354Z,11.95
2023-01-25T03:51:29.349Z,10.25
2023-01-25T03:54:10.394Z,3.83
2023-01-25T03:56:51.455Z,10.98
2023-01-25T03:59:31.339Z,13.65
2023-01-25T04:02:21.411Z,14.52
2023-01-25T04:05:01.365Z,17.35
2023-01-25T04:07:42.501Z,13.07
2023-01-25T04:10:23.349Z,9.90
2023-01-25T04:13:04.417Z,15.95
2023-01-25T04:15:45.359Z,17.02
2023-01-25T04:18:33.344Z,19.35
2023-01-25T04:21:20.362Z,14.23
2023-01-25T04:23:54.550Z,17.55
2023-01-25T04:26:41.360Z,21.17
2023-01-25T04:29:15.428Z,15.98
2023-01-25T04:32:02.475Z,21.67
2023-01-25T04:34:37.686Z,12.05
2023-01-25T04:37:24.391Z,16.45
2023-01-25T04:40:05.409Z,15.82
2023-01-25T04:42:45.372Z,12.75
2023-01-25T04:45:33.386Z,15.13
2023-01-25T04:48:16.391Z,15.38
2023-01-25T04:51:04.344Z,14.07
2023-01-25T04:53:38.303Z,18.35
2023-01-25T04:56:26.347Z,20.00
2023-01-25T04:59:06.351Z,11.98
2023-01-25T05:01:47.423Z,18.63
2023-01-25T05:04:28.342Z,15.50
2023-01-25T05:07:16.393Z,5.97
2023-01-25T05:09:57.366Z,13.55
2023-01-25T05:12:45.360Z,11.32
2023-01-25T05:15:26.396Z,10.88
2023-01-25T05:18:07.407Z,9.77
2023-01-25T05:20:47.350Z,8.80
2023-01-25T05:23:35.429Z,14.50
2023-01-25T05:26:28.252Z,14.38
2023-01-25T05:29:16.375Z,9.85
2023-01-25T05:31:50.316Z,8.98
2023-01-25T05:34:38.413Z,6.43
2023-01-25T05:37:14.418Z,14.60
2023-01-25T05:40:02.414Z,9.27
2023-01-25T05:42:43.352Z,15.57
2023-01-25T05:45:24.407Z,12.40
2023-01-25T05:48:05.352Z,13.10
2023-01-25T05:50:53.345Z,12.43
2023-01-25T05:53:34.400Z,10.85
2023-01-25T05:56:16.424Z,8.80
2023-01-25T05:59:04.402Z,7.40
2023-01-25T06:01:45.520Z,17.45
2023-01-25T06:04:25.367Z,15.15
2023-01-25T06:07:06.422Z,17.48
2023-01-25T06:09:46.365Z,10.02
2023-01-25T06:12:29.531Z,9.43
2023-01-25T06:15:11.681Z,15.10
2023-01-25T06:17:52.412Z,5.28
2023-01-25T06:20:32.360Z,10.40
2023-01-25T06:23:20.364Z,12.18
2023-01-25T06:26:08.366Z,10.93
2023-01-25T06:28:49.892Z,7.22
2023-01-25T06:31:30.492Z,6.88
2023-01-25T06:34:18.372Z,18.80
2023-01-25T06:36:52.286Z,14.13
2023-01-25T06:39:40.372Z,8.68
2023-01-25T06:42:14.291Z,14.02
2023-01-25T06:45:02.386Z,9.80
2023-01-25T06:47:36.299Z,9.32
2023-01-25T06:50:24.331Z,10.43
2023-01-25T06:53:05.388Z,5.63
2023-01-25T06:55:46.445Z,15.27
2023-01-25T06:58:26.401Z,9.95
2023-01-25T07:01:27.752Z,17.60
2023-01-25T07:04:08.229Z,34.53
2023-01-25T07:06:49.460Z,44.38
2023-01-25T07:09:31.369Z,64.80
2023-01-25T07:12:19.364Z,18.52
2023-01-25T07:14:53.326Z,16.55
2023-01-25T07:17:41.392Z,26.77
2023-01-25T07:20:15.376Z,10.07
2023-01-25T07:23:03.858Z,6.72
2023-01-25T07:25:54.388Z,27.60
2023-01-25T07:28:28.457Z,17.42
2023-01-25T07:31:16.419Z,20.27
2023-01-25T07:33:57.356Z,10.02
2023-01-25T07:36:53.351Z,17.88
2023-01-25T07:39:40.367Z,11.88
2023-01-25T07:42:15.168Z,18.45
2023-01-25T07:45:01.364Z,11.95
2023-01-25T07:47:42.380Z,19.75
2023-01-25T07:50:29.361Z,15.88
2023-01-25T07:53:10.351Z,16.27
2023-01-25T07:56:04.385Z,11.90
2023-01-25T08:01:27.408Z,7.65
2023-01-25T08:04:15.461Z,18.55
2023-01-25T08:06:49.508Z,13.38
2023-01-25T08:09:37.449Z,21.23
2023-01-25T08:12:17.421Z,14.32
2023-01-25T08:14:58.435Z,11.80
2023-01-25T08:17:39.374Z,7.10
2023-01-25T08:20:22.511Z,8.52
2023-01-25T08:23:02.388Z,14.98
2023-01-25T08:25:50.355Z,14.85
2023-01-25T08:28:30.365Z,15.23
2023-01-25T08:31:22.560Z,10.88
2023-01-25T08:34:03.372Z,26.90
2023-01-25T08:39:36.352Z,8.93
2023-01-25T08:42:17.476Z,17.90
2023-01-25T08:44:57.355Z,11.48
2023-01-25T08:47:38.448Z,20.67
2023-01-25T08:50:20.380Z,9.57
2023-01-25T08:53:08.373Z,14.55
2023-01-25T08:55:49.365Z,9.32
2023-01-25T08:58:31.727Z,14.43
2023-01-25T09:01:15.399Z,13.15
2023-01-25T09:03:56.504Z,14.63
2023-01-25T09:06:36.381Z,10.00
2023-01-25T09:09:17.426Z,19.85
2023-01-25T09:11:58.369Z,11.60
2023-01-25T09:14:40.257Z,23.38
2023-01-25T09:17:26.376Z,13.73
2023-01-25T09:20:00.428Z,23.27
2023-01-25T09:22:47.367Z,15.48
2023-01-25T09:25:21.459Z,17.33
2023-01-25T09:28:17.392Z,22.58
2023-01-25T09:31:06.147Z,17.75
2023-01-25T09:33:59.377Z,27.50
2023-01-25T09:36:33.473Z,17.95
2023-01-25T09:39:21.338Z,22.95
2023-01-25T09:42:14.947Z,24.77
2023-01-25T09:45:17.766Z,12.27
2023-01-25T09:48:05.389Z,13.90
2023-01-25T09:50:59.366Z,10.98
2023-01-25T09:53:47.469Z,24.17
2023-01-25T09:56:27.356Z,13.10
2023-01-25T09:59:14.675Z,22.65
2023-01-25T10:01:58.387Z,29.55
2023-01-25T10:05:00.950Z,26.33
2023-01-25T10:07:54.398Z,24.48
2023-01-25T10:10:45.638Z,17.42
2023-01-25T10:13:28.394Z,23.95
2023-01-25T10:16:24.566Z,19.52
2023-01-25T10:19:23.370Z,27.13
2023-01-25T10:22:28.869Z,26.50
2023-01-25T10:25:09.343Z,25.35
2023-01-25T10:28:06.365Z,14.88
2023-01-25T10:30:46.204Z,27.20
2023-01-25T10:33:36.649Z,18.92
2023-01-25T10:36:14.611Z,17.40
2023-01-25T10:39:05.379Z,14.50
2023-01-25T10:41:44.644Z,22.60
2023-01-25T10:44:32.381Z,33.90
2023-01-25T10:47:24.365Z,40.00
2023-01-25T10:50:05.459Z,25.48
2023-01-25T10:52:45.371Z,21.52
2023-01-25T10:55:36.380Z,32.03
2023-01-25T10:58:29.879Z,17.05
2023-01-25T11:01:19.431Z,43.05
2023-01-25T11:04:14.355Z,29.02
2023-01-25T11:07:01.392Z,25.27
2023-01-25T11:09:46.401Z,35.85
2023-01-25T11:12:40.374Z,25.05
2023-01-25T11:15:32.411Z,29.00
2023-01-25T11:18:21.558Z,18.30
2023-01-25T11:21:25.378Z,15.40
2023-01-25T11:24:05.555Z,24.88
2023-01-25T11:26:51.195Z,39.50
2023-01-25T11:29:31.377Z,55.22
2023-01-25T11:32:12.366Z,14.95
2023-01-25T11:35:06.340Z,36.63
2023-01-25T11:37:55.394Z,14.32
2023-01-25T11:40:38.722Z,25.40
2023-01-25T11:43:45.375Z,18.40
2023-01-25T11:46:26.561Z,37.15
2023-01-25T11:49:06.398Z,17.48
2023-01-25T11:51:57.362Z,15.55
2023-01-25T11:54:47.630Z,15.07
2023-01-25T11:58:04.362Z,30.23
2023-01-25T12:00:48.376Z,19.35
2023-01-25T12:03:40.417Z,28.77
2023-01-25T12:06:42.376Z,39.53
2023-01-25T12:09:35.356Z,21.20
2023-01-25T12:12:29.405Z,25.58
2023-01-25T12:15:17.378Z,21.77
2023-01-25T12:18:06.502Z,20.75
2023-01-25T12:21:03.358Z,29.45
2023-01-25T12:23:52.668Z,45.63
2023-01-25T12:26:55.385Z,26.38
2023-01-25T12:29:36.420Z,14.30
2023-01-25T12:32:34.440Z,14.82
2023-01-25T12:35:18.385Z,37.17
2023-01-25T12:38:09.447Z,25.25
2023-01-25T12:40:50.354Z,28.73
2023-01-25T12:43:44.358Z,38.30
2023-01-25T12:46:35.400Z,26.73
2023-01-25T12:49:22.588Z,34.45
2023-01-25T12:52:03.437Z,28.02
2023-01-25T12:54:52.381Z,33.65
2023-01-25T12:57:49.477Z,32.75
2023-01-25T13:00:43.698Z,38.20
2023-01-25T13:03:24.380Z,40.58
2023-01-25T13:06:11.467Z,35.35
2023-01-25T13:08:52.440Z,26.02
2023-01-25T13:11:37.513Z,45.88
2023-01-25T13:14:24.414Z,39.63
2023-01-25T13:17:46.423Z,43.55
2023-01-25T13:20:53.389Z,42.13
2023-01-25T13:23:50.425Z,34.75
2023-01-25T13:26:31.385Z,47.17
2023-01-25T13:29:39.476Z,39.47
2023-01-25T13:32:19.383Z,35.30
2023-01-25T13:35:07.452Z,42.22
2023-01-25T13:37:49.392Z,40.13
2023-01-25T13:40:35.558Z,34.13
2023-01-25T13:43:18.397Z,43.05
2023-01-25T13:45:59.531Z,36.35
2023-01-25T13:48:41.423Z,37.97
2023-01-25T13:51:31.392Z,16.35
2023-01-25T13:54:05.460Z,36.08
2023-01-25T13:56:53.365Z,31.08
2023-01-25T13:59:34.405Z,30.17
2023-01-25T14:02:35.388Z,28.10
2023-01-25T14:05:19.338Z,23.27
2023-01-25T14:08:09.372Z,28.52
2023-01-25T14:10:51.375Z,25.20
2023-01-25T14:13:32.487Z,31.42
2023-01-25T14:16:16.431Z,41.53
2023-01-25T14:18:57.497Z,34.10
2023-01-25T14:21:38.393Z,30.27
2023-01-25T14:24:26.376Z,30.85
2023-01-25T14:27:00.397Z,37.60
2023-01-25T14:29:48.367Z,29.23
2023-01-25T14:32:31.391Z,34.13
2023-01-25T14:35:56.275Z,24.27
2023-01-25T14:38:41.353Z,38.00
2023-01-25T14:41:51.645Z,27.10
2023-01-25T14:44:40.402Z,31.85
2023-01-25T14:47:28.490Z,35.83
2023-01-25T14:50:27.416Z,41.03
2023-01-25T14:53:14.481Z,30.23
2023-01-25T14:55:56.378Z,32.65
2023-01-25T14:58:37.793Z,38.47
2023-01-25T15:01:22.440Z,28.75
2023-01-25T15:04:03.459Z,26.98
2023-01-25T15:06:54.641Z,27.27
2023-01-25T15:09:37.523Z,38.88
2023-01-25T15:12:23.375Z,35.20
2023-01-25T15:15:04.484Z,18.75
2023-01-25T15:17:56.449Z,24.60
2023-01-25T15:20:46.493Z,17.65
2023-01-25T15:23:34.391Z,20.33
2023-01-25T15:26:08.471Z,33.35
2023-01-25T15:28:57.363Z,29.00
2023-01-25T15:31:35.488Z,36.50
2023-01-25T15:34:33.384Z,31.60
2023-01-25T15:37:14.371Z,15.55
2023-01-25T15:40:08.595Z,22.40
2023-01-25T15:45:29.468Z,14.60
2023-01-25T15:48:29.406Z,25.30
2023-01-25T15:53:51.382Z,28.63
2023-01-25T15:56:27.571Z,30.85
2023-01-25T15:59:16.452Z,12.85
2023-01-25T16:01:57.382Z,24.53
2023-01-25T16:04:51.371Z,20.25
2023-01-25T16:07:39.423Z,19.55
2023-01-25T16:10:13.426Z,19.95
2023-01-25T16:13:00.386Z,24.30
2023-01-25T16:15:42.162Z,20.70
2023-01-25T16:18:23.396Z,18.83
2023-01-25T16:21:12.412Z,24.30
2023-01-25T16:23:46.511Z,25.60
2023-01-25T16:26:41.367Z,17.63
2023-01-25T16:29:15.331Z,23.45
2023-01-25T16:32:03.489Z,23.92
2023-01-25T16:34:37.334Z,23.98
2023-01-25T16:37:29.377Z,26.98
2023-01-25T16:40:03.493Z,22.98
2023-01-25T16:42:51.416Z,20.60
2023-01-25T16:45:25.422Z,24.65
2023-01-25T16:48:13.396Z,24.73
2023-01-25T16:51:00.439Z,24.25
2023-01-25T16:53:34.446Z,18.80
2023-01-25T16:56:28.384Z,21.30
2023-01-25T16:59:10.407Z,15.88
2023-01-25T17:02:04.347Z,31.13
2023-01-25T17:04:51.455Z,19.05
2023-01-25T17:07:25.445Z,20.27
2023-01-25T17:10:14.420Z,13.90
2023-01-25T17:12:56.387Z,14.80
2023-01-25T17:15:43.519Z,22.33
2023-01-25T17:18:30.373Z,30.30
2023-01-25T17:21:25.416Z,28.75
2023-01-25T17:24:13.507Z,11.15
2023-01-25T17:26:47.451Z,21.23
2023-01-25T17:32:24.558Z,24.52
2023-01-25T17:35:12.378Z,22.17
2023-01-25T17:37:53.371Z,18.13
2023-01-25T17:40:41.359Z,14.15
2023-01-25T17:43:15.465Z,31.42
2023-01-25T17:46:02.417Z,32.25
2023-01-25T17:48:36.492Z,29.30
2023-01-25T17:51:24.900Z,30.98
2023-01-25T17:53:59.496Z,37.53
2023-01-25T17:56:47.401Z,28.80
2023-01-25T17:59:28.393Z,29.90
2023-01-25T18:02:17.429Z,23.70
2023-01-25T18:04:51.484Z,41.67
2023-01-25T18:07:39.362Z,24.55
2023-01-25T18:10:20.405Z,24.92
2023-01-25T18:13:14.376Z,27.48
2023-01-25T18:16:02.446Z,30.38
2023-01-25T18:18:43.435Z,24.77
2023-01-25T18:21:32.375Z,27.38
2023-01-25T18:24:15.446Z,22.05
2023-01-25T18:27:07.389Z,25.05
2023-01-25T18:29:46.718Z,27.52
2023-01-25T18:32:34.402Z,18.90
2023-01-25T18:35:09.504Z,34.58
2023-01-25T18:37:57.404Z,32.00
2023-01-25T18:40:31.636Z,38.38
2023-01-25T18:43:20.408Z,24.65
2023-01-25T18:46:11.494Z,38.42
2023-01-25T18:49:05.389Z,32.85
2023-01-25T18:52:08.800Z,28.00
2023-01-25T18:54:44.541Z,16.70
2023-01-25T18:57:31.379Z,30.88
2023-01-25T19:00:05.450Z,23.00
2023-01-25T19:02:52.415Z,24.48
2023-01-25T19:05:26.499Z,22.35
2023-01-25T19:08:13.408Z,21.45
2023-01-25T19:10:47.476Z,29.08
2023-01-25T19:13:35.384Z,24.83
2023-01-25T19:16:16.573Z,39.00
2023-01-25T19:19:10.347Z,26.95
2023-01-25T19:21:58.372Z,26.27
2023-01-25T19:24:32.594Z,22.65
2023-01-25T19:27:19.371Z,20.60
2023-01-25T19:29:53.477Z,21.05
2023-01-25T19:32:40.393Z,20.10
2023-01-25T19:35:21.401Z,33.88
2023-01-25T19:38:15.384Z,28.05
2023-01-25T19:41:03.378Z,17.83
2023-01-25T19:46:49.514Z,19.00
2023-01-25T19:49:23.536Z,30.67
2023-01-25T19:52:10.381Z,29.90
2023-01-25T19:54:44.463Z,10.13
2023-01-25T19:57:31.375Z,25.52
2023-01-25T20:00:05.492Z,30.40
2023-01-25T20:02:54.561Z,14.93
2023-01-25T20:05:29.485Z,28.02
2023-01-25T20:08:16.397Z,28.25
2023-01-25T20:10:50.469Z,17.92
2023-01-25T20:13:38.404Z,24.25
2023-01-25T20:16:27.474Z,33.63
2023-01-25T20:19:14.437Z,18.45
2023-01-25T20:21:48.460Z,29.98
2023-01-25T20:24:35.377Z,13.88
2023-01-25T20:27:16.472Z,34.08
2023-01-25T20:30:10.385Z,38.42
2023-01-25T20:32:57.407Z,30.25
2023-01-25T20:35:38.400Z,26.38
2023-01-25T20:38:32.372Z,18.70
2023-01-25T20:41:22.409Z,31.63
2023-01-25T20:44:01.915Z,13.35
2023-01-25T20:46:49.398Z,31.85
2023-01-25T20:49:24.470Z,29.90
2023-01-25T20:52:14.380Z,25.10
2023-01-25T20:54:56.160Z,29.52
2023-01-25T20:57:36.424Z,29.42
2023-01-25T21:00:17.571Z,21.52
2023-01-25T21:02:57.397Z,19.52
2023-01-25T21:05:38.479Z,23.17
2023-01-25T21:08:18.405Z,10.57
2023-01-25T21:11:07.394Z,16.33
2023-01-25T21:13:41.622Z,12.50
2023-01-25T21:16:30.457Z,15.75
2023-01-25T21:19:06.032Z,22.48
2023-01-25T21:21:53.377Z,11.88
2023-01-25T21:24:27.398Z,29.52
2023-01-25T21:27:15.408Z,36.08
2023-01-25T21:29:49.385Z,28.00
2023-01-25T21:32:37.408Z,31.95
2023-01-25T21:35:11.702Z,32.22
2023-01-25T21:37:59.395Z,26.92
2023-01-25T21:40:33.468Z,21.52
2023-01-25T21:43:22.387Z,25.30
2023-01-25T21:46:13.940Z,29.40
2023-01-25T21:49:19.387Z,27.27
2023-01-25T21:52:01.406Z,30.85
2023-01-25T21:54:42.472Z,20.55
2023-01-25T21:57:22.398Z,11.00
2023-01-25T22:00:04.363Z,13.68
2023-01-25T22:02:44.441Z,19.48
2023-01-25T22:05:25.483Z,22.20
2023-01-25T22:08:06.369Z,23.20
2023-01-25T22:10:47.498Z,27.60
2023-01-25T22:13:27.379Z,29.17
2023-01-25T22:16:08.563Z,28.08
2023-01-25T22:18:49.412Z,25.52
2023-01-25T22:21:32.104Z,23.85
2023-01-25T22:24:13.417Z,26.67
2023-01-25T22:27:18.368Z,12.55
2023-01-25T22:29:52.339Z,29.42
2023-01-25T22:32:40.378Z,26.20
2023-01-25T22:35:20.414Z,33.50
2023-01-25T22:38:01.520Z,22.85
2023-01-25T22:40:41.385Z,16.02
2023-01-25T22:43:29.421Z,24.67
2023-01-25T22:46:10.385Z,28.70
2023-01-25T22:48:58.409Z,22.25
2023-01-25T22:51:32.806Z,30.65
2023-01-25T22:54:20.382Z,24.40
2023-01-25T22:57:00.384Z,27.60
2023-01-25T22:59:41.557Z,31.63
2023-01-25T23:02:21.386Z,26.02
2023-01-25T23:05:09.397Z,26.70
2023-01-25T23:07:49.399Z,29.95
2023-01-25T23:10:37.404Z,16.45
2023-01-25T23:13:11.404Z,18.67
2023-01-25T23:15:59.472Z,26.67
2023-01-25T23:18:52.098Z,26.55
2023-01-25T23:21:40.426Z,16.35
2023-01-25T23:24:14.503Z,25.08
2023-01-25T23:27:02.420Z,18.52
2023-01-25T23:29:43.424Z,17.77
2023-01-25T23:32:31.409Z,20.55
2023-01-25T23:35:06.051Z,30.63
2023-01-25T23:37:53.404Z,28.42
2023-01-25T23:40:27.397Z,22.10
2023-01-25T23:43:15.402Z,26.98
2023-01-25T23:45:55.375Z,30.27
2023-01-25T23:48:43.390Z,29.45
2023-01-25T23:51:24.419Z,19.77
2023-01-25T23:54:05.472Z,22.17
2023-01-25T23:56:46.400Z,31.88
2023-01-25T23:59:27.520Z,27.60
